Latest Weather Observations for Mount Hotham

IDV60801

Issued at 5:32 am EDT Friday 24 November 2017 (issued every 30 minutes, with the page automatically refreshed every 10 minutes)

About weather observations | Map of weather stations | Latest weather observations for VIC | Other Formats
Station Details ID: 083085 Name: MOUNT HOTHAM Lat: -36.98 Lon: 147.13 Height: 1849.0 m
Data from the previous 72 hours. | See also: Recent months at Mount Hotham
Date/Time
EDT
Temp
°C
App
Temp
°C
Dew
Point
°C
Rel
Hum
%
Delta-T
°C
Wind Press
QNH
hPa
Press
MSL
hPa
Rain since
9am
mm
Dir  Spd
km/h
Gust
km/h
Spd
kts
Gust
kts
24/05:30am 9.5 2.5 4.3 70 2.6 N 30 35 16 19 - - -
24/05:00am 9.6 2.3 4.4 70 2.6 N 32 37 17 20 - - -
24/04:30am 9.8 2.3 4.6 70 2.6 N 33 46 18 25 - - -
24/04:00am 9.9 2.4 4.3 68 2.8 N 33 41 18 22 - - -
24/03:30am 10.0 2.5 4.2 67 2.9 N 33 43 18 23 - - -
24/03:00am 10.1 2.6 4.5 68 2.8 N 33 43 18 23 - - -
24/02:30am 10.0 3.3 3.7 65 3.1 N 28 33 15 18 - - -
24/02:00am 10.2 3.5 3.5 63 3.3 NNW 28 35 15 19 - - -
24/01:30am 11.2 5.3 1.7 52 4.5 NNW 22 28 12 15 - - -
24/01:00am 10.6 6.1 1.9 55 4.1 NNW 15 20 8 11 - - -
24/12:30am 10.9 5.1 2.5 56 4.0 NNW 22 26 12 14 - - -
24/12:00am 11.0 5.7 3.1 58 3.8 NNW 20 24 11 13 - - -
 
Date/Time
EDT
Temp
°C
App
Temp
°C
Dew
Point
°C
Rel
Hum
%
Delta-T
°C
Wind Press
QNH
hPa
Press
MSL
hPa
Rain since
9am
mm
Dir  Spd
km/h
Gust
km/h
Spd
kts
Gust
kts
23/11:30pm 10.4 5.9 4.1 65 3.1 NNW 17 20 9 11 - - -
23/11:00pm 9.7 6.7 4.1 68 2.8 N 9 13 5 7 - - -
23/10:30pm 9.9 7.3 5.9 76 2.1 ENE 9 13 5 7 - - -
23/10:00pm 8.1 5.2 6.4 89 0.9 E 11 15 6 8 - - -
23/09:30pm 8.4 5.9 6.5 88 1.0 E 9 13 5 7 - - -
23/09:00pm 8.2 4.9 6.5 89 0.9 ESE 13 20 7 11 - - -
23/08:30pm 8.8 5.5 6.4 85 1.2 E 13 20 7 11 - - -
23/08:00pm 10.9 8.6 5.9 71 2.6 ESE 7 11 4 6 - - -
23/07:30pm 11.1 8.4 5.4 68 2.9 NNW 9 13 5 7 - - -
23/07:00pm 11.1 6.6 6.3 72 2.5 N 19 24 10 13 - - -
23/06:30pm 11.5 5.9 7.0 74 2.4 NNW 26 35 14 19 - - -
23/06:00pm 12.5 9.4 7.4 71 2.7 NW 13 19 7 10 - - -
23/05:30pm 12.5 9.3 6.8 68 3.0 NW 13 20 7 11 - - -
23/05:00pm 12.9 8.6 7.1 68 3.1 NW 19 30 10 16 - - -
23/04:30pm 13.0 9.1 7.0 67 3.2 NW 17 32 9 17 - - -
23/04:00pm 13.4 9.5 8.5 72 2.7 N 19 26 10 14 - - -
23/03:30pm 12.5 8.2 7.2 70 2.8 NNW 19 30 10 16 - - -
23/03:00pm 13.6 8.9 7.6 67 3.3 NNW 22 32 12 17 - - -
23/02:30pm 12.2 6.7 7.7 74 2.4 NNW 26 35 14 19 - - -
23/02:00pm 13.3 8.4 8.6 73 2.6 NNW 24 41 13 22 - - -
23/01:30pm 13.7 8.8 8.3 70 3.0 NNW 24 35 13 19 - - -
23/01:00pm 12.8 7.3 7.5 70 2.9 NNW 26 43 14 23 - - -
23/12:30pm 12.7 7.2 7.4 70 2.9 NW 26 39 14 21 - - -
23/12:00pm 12.5 6.6 7.4 71 2.7 NW 28 41 15 22 - - -
23/11:30am 12.9 6.8 6.5 65 3.4 NW 28 39 15 21 - - -
23/11:00am 12.7 7.2 7.4 70 2.9 NW 26 35 14 19 - - -
23/10:30am 11.9 5.4 6.4 69 2.9 NNW 30 41 16 22 - - -
23/10:00am 11.8 5.7 6.7 71 2.7 NNW 28 41 15 22 - - -
23/09:30am 11.6 4.6 6.1 69 2.9 NNW 32 43 17 23 - - -
23/09:00am 10.8 3.6 5.1 68 2.9 NNW 32 41 17 22 - - -
23/08:30am 10.6 3.3 4.5 66 3.1 NNW 32 43 17 23 - - -
23/08:00am 10.4 3.3 3.7 63 3.3 NNW 30 41 16 22 - - -
23/07:30am 10.4 4.0 3.2 61 3.5 NNW 26 35 14 19 - - -
23/07:00am 9.7 2.8 2.6 61 3.4 NNW 28 35 15 19 - - -
23/06:30am 8.8 1.5 2.4 64 3.0 NNW 30 35 16 19 - - -
23/06:00am 9.2 1.9 2.3 62 3.3 NNW 30 37 16 20 - - -
23/05:30am 9.7 2.3 1.6 57 3.8 NNW 30 37 16 20 - - -
23/05:00am 9.6 3.0 2.2 60 3.5 NNW 26 35 14 19 - - -
23/04:30am 9.4 2.5 2.5 62 3.3 NNW 28 35 15 19 - - -
23/04:00am 9.4 2.6 2.9 64 3.1 NNW 28 37 15 20 - - -
23/03:30am 9.5 3.3 4.3 70 2.6 NNW 26 32 14 17 - - -
23/03:00am 9.9 3.7 4.5 69 2.7 NNW 26 33 14 18 - - -
23/02:30am 9.9 3.9 3.6 65 3.1 NNW 24 30 13 16 - - -
23/02:00am 10.6 4.9 2.9 59 3.7 NNW 22 28 12 15 - - -
23/01:30am 10.5 4.5 1.1 52 4.4 NNW 22 26 12 14 - - -
23/01:00am 10.0 4.6 1.1 54 4.1 NNW 19 22 10 12 - - -
23/12:30am 10.1 5.7 2.9 61 3.5 NNW 15 17 8 9 - - -
23/12:00am 10.2 5.8 2.6 59 3.6 NNW 15 17 8 9 - - -
 
Date/Time
EDT
Temp
°C
App
Temp
°C
Dew
Point
°C
Rel
Hum
%
Delta-T
°C
Wind Press
QNH
hPa
Press
MSL
hPa
Rain since
9am
mm
Dir  Spd
km/h
Gust
km/h
Spd
kts
Gust
kts
22/11:30pm 10.1 5.5 3.6 64 3.2 NW 17 20 9 11 - - -
22/11:00pm 10.2 6.1 4.1 66 3.0 NNW 15 17 8 9 - - -
22/10:30pm 10.1 7.1 6.1 76 2.1 NNW 11 15 6 8 - - -
22/10:00pm 10.2 6.8 5.8 74 2.3 N 13 17 7 9 - - -
22/09:30pm 10.8 7.3 5.6 70 2.7 NE 13 17 7 9 - - -
22/09:00pm 10.8 7.4 3.8 62 3.5 SSE 11 17 6 9 - - -
22/08:30pm 11.0 8.6 5.3 68 2.9 S 7 11 4 6 - - -
22/08:00pm 12.5 11.3 6.3 66 3.3 ENE 2 2 1 1 - - -
22/07:30pm 12.6 9.7 6.4 66 3.3 NNW 11 15 6 8 - - -
22/07:00pm 13.4 10.2 6.7 64 3.6 NW 13 17 7 9 - - -
22/06:30pm 13.3 10.0 6.6 64 3.6 NW 13 24 7 13 - - -
22/06:00pm 14.2 11.1 7.3 63 3.7 NNW 13 22 7 12 - - -
22/05:30pm 14.4 10.4 6.7 60 4.1 NW 17 24 9 13 - - -
22/05:00pm 13.7 10.4 6.6 62 3.8 NNW 13 20 7 11 - - -
22/04:30pm 16.3 12.5 7.5 56 4.8 WNW 17 28 9 15 - - -
22/04:00pm 15.9 12.4 7.1 56 4.8 WNW 15 24 8 13 - - -
22/03:30pm 15.5 12.2 6.5 55 4.8 WNW 13 22 7 12 - - -
22/03:00pm 14.8 11.0 5.9 55 4.7 WNW 15 22 8 12 - - -
22/02:30pm 15.5 11.6 7.3 58 4.5 WNW 17 33 9 18 - - -
22/02:00pm 14.6 11.2 5.9 56 4.6 WNW 13 22 7 12 - - -
22/01:30pm 14.3 10.7 5.1 54 4.8 WNW 13 20 7 11 - - -
22/01:00pm 13.5 10.1 3.8 52 4.9 W 11 17 6 9 - - -
22/12:30pm 13.7 10.0 4.3 53 4.8 WNW 13 20 7 11 - - -
22/12:00pm 13.6 10.4 5.0 56 4.4 W 11 20 6 11 - - -
22/11:30am 12.5 8.8 4.2 57 4.2 WNW 13 20 7 11 - - -
22/11:00am 13.0 9.6 5.9 62 3.7 WNW 13 22 7 12 - - -
22/10:30am 11.5 7.3 4.0 60 3.7 WNW 15 20 8 11 - - -
22/10:00am 11.6 7.8 4.1 60 3.7 W 13 19 7 10 - - -
22/09:30am 11.8 8.5 4.5 61 3.7 WNW 11 17 6 9 - - -
22/09:00am 11.3 7.3 3.1 57 4.0 WNW 13 20 7 11 - - -
22/08:30am 10.8 6.8 3.1 59 3.7 NW 13 17 7 9 - - -
22/08:00am 10.9 6.8 2.5 56 4.0 WNW 13 17 7 9 - - -
22/07:30am 10.3 5.8 1.9 56 4.0 WNW 15 17 8 9 - - -
22/07:00am 9.5 5.0 2.1 60 3.5 WNW 15 17 8 9 - - -
22/06:30am 9.4 5.2 1.6 58 3.6 WNW 13 17 7 9 - - -
22/06:00am 9.2 4.6 1.4 58 3.6 WNW 15 19 8 10 - - -
22/05:30am 9.5 5.0 2.1 60 3.5 NW 15 17 8 9 - - -
22/05:00am 8.6 4.0 1.7 62 3.2 NW 15 17 8 9 - - -
22/04:30am 9.0 4.0 1.4 59 3.5 NW 17 20 9 11 - - -
22/04:00am 9.3 4.1 -6.1 33 6.0 NW 13 17 7 9 - - -
22/03:30am 11.5 7.0 -6.8 27 7.2 WNW 9 11 5 6 - - -
22/03:00am 11.7 8.3 -5.3 30 6.9 ENE 4 6 2 3 - - -
22/02:30am 11.1 7.0 -6.7 28 7.0 E 7 11 4 6 - - -
22/02:00am 11.2 7.4 -0.9 43 5.4 E 9 11 5 6 - - -
22/01:30am 11.0 6.9 -0.5 45 5.2 ESE 11 15 6 8 - - -
22/01:00am 10.7 6.0 -4.9 33 6.3 ESE 11 15 6 8 - - -
22/12:30am 10.4 4.8 -6.8 29 6.7 ESE 15 20 8 11 - - -
22/12:00am 9.8 4.3 -5.3 34 6.0 ESE 15 24 8 13 - - -
 
Date/Time
EDT
Temp
°C
App
Temp
°C
Dew
Point
°C
Rel
Hum
%
Delta-T
°C
Wind Press
QNH
hPa
Press
MSL
hPa
Rain since
9am
mm
Dir  Spd
km/h
Gust
km/h
Spd
kts
Gust
kts
21/11:30pm 9.9 4.6 -0.9 47 4.8 ESE 17 22 9 12 - - -
21/11:00pm 9.9 4.8 0.8 53 4.2 ESE 17 20 9 11 - - -
21/10:30pm 10.1 4.5 1.5 55 4.0 SE 20 24 11 13 - - -
21/10:00pm 10.3 5.5 2.4 58 3.8 SE 17 20 9 11 - - -
21/09:30pm 10.5 5.8 3.1 60 3.6 SE 17 22 9 12 - - -
21/09:00pm 10.8 5.6 3.8 62 3.5 SE 20 26 11 14 - - -
21/08:30pm 11.5 5.6 4.0 60 3.7 SSE 24 30 13 16 - - -
21/08:00pm 12.3 6.9 4.3 58 4.0 SSE 22 28 12 15 - - -
21/07:30pm 13.6 7.8 4.5 54 4.6 SSE 24 32 13 17 - - -
21/07:00pm 14.0 8.2 4.6 53 4.8 S 24 35 13 19 - - -
21/06:30pm 13.8 9.0 4.4 53 4.8 SSE 19 22 10 12 - - -
21/06:00pm 13.9 9.8 4.5 53 4.8 SE 15 20 8 11 - - -
21/05:30pm 14.0 10.0 4.9 54 4.7 ESE 15 22 8 12 - - -
21/05:00pm 14.3 10.7 4.9 53 4.9 SE 13 19 7 10 - - -
21/04:30pm 14.4 9.6 4.7 52 5.0 SE 19 30 10 16 - - -
21/04:00pm 15.3 10.5 4.7 49 5.5 SSE 19 32 10 17 - - -
21/03:30pm 15.1 10.1 4.5 49 5.5 SSE 20 33 11 18 - - -
21/03:00pm 15.8 11.6 3.6 44 6.2 S 15 24 8 13 - - -
21/02:30pm 15.2 13.3 9.1 67 3.4 NW 9 33 5 18 - - -
21/02:00pm 16.0 10.7 2.8 41 6.6 S 20 30 11 16 - - -
21/01:30pm 16.1 10.5 3.5 43 6.4 SSE 22 35 12 19 - - -
21/01:00pm 14.8 9.2 3.6 47 5.7 S 22 33 12 18 - - -
21/12:30pm 15.0 9.7 3.2 45 5.9 S 20 35 11 19 - - -
21/12:00pm 17.1 13.1 4.8 44 6.5 S 15 26 8 14 - - -
21/11:30am 15.6 11.4 5.8 52 5.2 SSE 17 24 9 13 - - -
21/11:00am 14.1 10.0 6.2 59 4.2 SSE 17 24 9 13 - - -
21/10:30am 14.3 10.6 6.4 59 4.2 SSE 15 22 8 12 - - -
21/10:00am 14.1 10.0 6.2 59 4.2 S 17 26 9 14 - - -
21/09:30am 13.7 10.3 5.8 59 4.1 SSE 13 17 7 9 - - -
21/09:00am 13.0 10.1 4.7 57 4.2 SSE 9 15 5 8 - - -
21/08:30am 13.4 11.0 5.1 57 4.3 SSE 7 11 4 6 - - -
21/08:00am 12.9 10.9 4.3 56 4.4 S 4 7 2 4 - - -
21/07:30am 12.0 9.5 4.0 58 4.0 SSW 6 7 3 4 - - -
21/07:00am 12.1 10.7 5.3 63 3.5 S 2 4 1 2 - - -
21/06:30am 11.6 9.3 4.6 62 3.5 W 6 7 3 4 - - -
21/06:00am 11.8 10.4 3.3 56 4.2 CALM 0 2 0 1 - - -

Other Formats:

Comma delimited format used in spreadsheet applications
http://www.bom.gov.au/fwo/IDV60801/IDV60801.94906.axf

JavaScript Object Notation format (JSON) in row-major order
http://www.bom.gov.au/fwo/IDV60801/IDV60801.94906.json